Time;durP1;ratioP1;P1;durP2;ratioP2;P2;SDS_P1;SDS_P2;PMS_P1;PMS_P2;Temp;Humidity;BMP_temperature;BMP_pressure;BME280_temperature;BME280_humidity;BME280_pressure;Samples;Min_cycle;Max_cycle;Signal;HPM_P1;HPM_P2
2021/05/27 00:00:30;;;;;;;2.50;1.67;;;;;;;18.97;60.18;99815.63;5114949;28;20105;-72
2021/05/27 00:02:56;;;;;;;2.63;1.33;;;;;;;18.99;60.16;99811.69;5114788;28;20221;-72
2021/05/27 00:05:22;;;;;;;2.92;1.30;;;;;;;18.91;60.51;99819.16;5113394;28;20032;-72
2021/05/27 00:07:48;;;;;;;3.50;1.30;;;;;;;18.89;60.54;99811.34;5114116;28;20030;-72
2021/05/27 00:10:17;;;;;;;2.05;1.30;;;;;;;18.74;61.10;99800.06;5111382;28;20132;-72
2021/05/27 00:12:43;;;;;;;2.22;1.60;;;;;;;18.61;61.92;99803.59;5094618;28;20039;-72
2021/05/27 00:15:10;;;;;;;4.10;1.70;;;;;;;18.62;61.80;99802.56;5115791;28;20332;-71
2021/05/27 00:17:35;;;;;;;2.53;1.60;;;;;;;18.62;62.32;99793.69;5112234;28;20038;-72
2021/05/27 00:20:05;;;;;;;3.88;1.85;;;;;;;18.58;62.80;99793.25;5093801;28;20051;-72
2021/05/27 00:22:31;;;;;;;3.95;2.10;;;;;;;18.60;62.58;99799.22;5114079;27;20051;-71
2021/05/27 00:24:56;;;;;;;3.63;2.00;;;;;;;18.60;62.51;99795.72;5119508;27;20366;-71
2021/05/27 00:27:22;;;;;;;3.45;1.77;;;;;;;18.74;61.86;99805.44;5099924;28;20032;-72
2021/05/27 00:29:47;;;;;;;2.58;1.88;;;;;;;18.90;60.75;99793.38;5116694;27;20031;-72
2021/05/27 00:32:13;;;;;;;3.33;1.48;;;;;;;18.96;60.41;99779.91;5115381;27;20241;-72
2021/05/27 00:34:38;;;;;;;4.18;1.73;;;;;;;19.11;60.01;99788.50;5116137;27;20397;-72
2021/05/27 00:37:04;;;;;;;1.88;1.58;;;;;;;19.22;59.43;99799.56;5121768;27;20035;-72
2021/05/27 00:39:29;;;;;;;2.30;1.77;;;;;;;19.21;59.02;99789.88;5122445;28;20083;-72
2021/05/27 00:41:57;;;;;;;2.80;1.80;;;;;;;19.30;59.02;99789.41;5118205;27;20039;-72
2021/05/27 00:44:27;;;;;;;3.75;1.70;;;;;;;19.27;58.79;99789.00;5099547;28;20087;-72
2021/05/27 00:46:54;;;;;;;3.58;1.70;;;;;;;19.29;58.87;99787.75;5122421;28;20028;-72
2021/05/27 00:49:20;;;;;;;3.90;1.77;;;;;;;19.28;58.77;99796.03;5122291;28;20050;-72
2021/05/27 00:51:47;;;;;;;3.72;2.05;;;;;;;19.29;59.02;99795.00;5118617;27;20222;-72
2021/05/27 00:54:13;;;;;;;3.80;1.90;;;;;;;19.29;59.06;99789.63;5115011;27;20519;-72
2021/05/27 00:56:40;;;;;;;3.20;1.85;;;;;;;19.22;59.11;99783.47;5116449;27;20039;-72
2021/05/27 00:59:06;;;;;;;3.53;1.95;;;;;;;19.28;58.93;99788.78;5115783;28;20405;-72
2021/05/27 01:01:32;;;;;;;3.92;2.00;;;;;;;19.21;59.07;99782.66;5103075;28;20035;-72
2021/05/27 01:03:58;;;;;;;3.75;2.20;;;;;;;19.15;59.45;99778.16;5123894;28;20023;-72
2021/05/27 01:06:24;;;;;;;4.10;2.42;;;;;;;18.93;60.21;99772.31;5123528;28;20062;-72
2021/05/27 01:08:49;;;;;;;5.65;2.60;;;;;;;18.55;61.18;99766.88;5104643;28;20023;-72
2021/05/27 01:11:16;;;;;;;3.83;2.55;;;;;;;18.40;62.32;99769.81;5116413;27;20047;-72
2021/05/27 01:13:42;;;;;;;5.32;2.30;;;;;;;18.22;63.07;99763.50;5115514;27;20047;-72
2021/05/27 01:16:17;;;;;;;4.22;2.58;;;;;;;18.21;63.37;99762.66;5116838;27;20241;-72
2021/05/27 01:18:43;;;;;;;5.05;2.53;;;;;;;18.27;63.61;99764.50;5117131;27;20058;-72
2021/05/27 01:21:09;;;;;;;5.00;2.30;;;;;;;18.05;64.11;99755.91;5117774;27;20214;-71
2021/05/27 01:23:35;;;;;;;4.53;2.78;;;;;;;17.59;66.25;99750.56;5117248;27;20034;-71
2021/05/27 01:26:02;;;;;;;3.22;2.50;;;;;;;17.48;66.80;99757.38;5134469;27;20317;-71
2021/05/27 01:28:30;;;;;;;3.83;2.80;;;;;;;17.60;66.92;99762.09;5121469;28;20027;-71
2021/05/27 01:30:57;;;;;;;3.72;3.00;;;;;;;17.37;67.52;99757.16;5117961;27;20339;-72
2021/05/27 01:33:23;;;;;;;4.45;2.97;;;;;;;17.33;68.30;99758.59;5122088;28;20023;-72
2021/05/27 01:35:49;;;;;;;5.45;3.15;;;;;;;17.12;68.96;99759.63;5121710;28;20031;-72
2021/05/27 01:38:17;;;;;;;6.03;3.65;;;;;;;17.17;69.68;99757.97;5116596;27;20028;-72
2021/05/27 01:40:43;;;;;;;3.33;3.03;;;;;;;17.28;69.35;99761.06;5114167;27;20038;-72
2021/05/27 01:43:10;;;;;;;3.55;3.22;;;;;;;16.91;70.05;99724.00;5098463;28;20019;-72
2021/05/27 01:45:36;;;;;;;5.80;3.28;;;;;;;16.62;72.92;99743.00;5121705;28;20028;-72
2021/05/27 01:48:02;;;;;;;4.75;4.05;;;;;;;16.47;74.36;99750.34;5119630;28;20028;-71
2021/05/27 01:50:28;;;;;;;13.18;4.30;;;;;;;16.40;75.10;99739.63;5097201;28;21063;-72
2021/05/27 01:53:00;;;;;;;5.93;4.25;;;;;;;16.29;75.25;99735.69;5120985;27;20058;-72
2021/05/27 01:55:26;;;;;;;6.10;4.50;;;;;;;16.46;74.96;99754.88;5120955;28;20308;-72
2021/05/27 01:57:52;;;;;;;4.90;4.40;;;;;;;16.80;73.56;99745.97;5099188;28;20095;-72
2021/05/27 02:00:19;;;;;;;4.32;3.85;;;;;;;17.08;72.83;99753.03;5114469;28;20035;-72
2021/05/27 02:02:45;;;;;;;7.65;4.00;;;;;;;17.10;72.37;99759.81;5115269;27;20038;-72
2021/05/27 02:05:12;;;;;;;6.60;4.20;;;;;;;16.76;74.03;99750.09;5119549;28;20080;-72
2021/05/27 02:07:37;;;;;;;8.90;4.43;;;;;;;16.63;74.92;99747.31;5116271;28;20024;-72
2021/05/27 02:10:04;;;;;;;7.22;5.38;;;;;;;16.57;75.25;99751.63;5115072;27;20092;-72
2021/05/27 02:12:29;;;;;;;5.70;4.93;;;;;;;16.70;74.50;99748.22;5113326;27;20034;-72
2021/05/27 02:14:54;;;;;;;5.97;4.75;;;;;;;16.87;73.82;99756.69;5113639;28;20028;-72
2021/05/27 02:17:20;;;;;;;7.25;4.65;;;;;;;17.11;72.95;99750.78;5113671;28;20372;-72
2021/05/27 02:19:45;;;;;;;5.35;4.85;;;;;;;17.24;72.29;99756.13;5114369;27;20026;-72
2021/05/27 02:22:11;;;;;;;7.35;4.95;;;;;;;17.15;72.32;99760.03;5113346;28;20042;-71
2021/05/27 02:24:36;;;;;;;6.53;4.68;;;;;;;17.12;72.21;99760.44;5115726;28;20086;-72
2021/05/27 02:27:02;;;;;;;6.80;4.72;;;;;;;16.95;73.40;99753.00;5130785;27;20225;-72
2021/05/27 02:29:27;;;;;;;9.07;4.95;;;;;;;16.96;73.64;99757.34;5098390;27;20102;-72
2021/05/27 02:31:53;;;;;;;6.97;5.07;;;;;;;16.91;73.53;99756.09;5114691;27;20095;-71
2021/05/27 02:34:18;;;;;;;6.97;5.00;;;;;;;16.76;73.69;99747.41;5114750;27;20020;-72
2021/05/27 02:36:44;;;;;;;9.32;5.68;;;;;;;16.66;73.56;99746.16;5114861;27;20038;-71
2021/05/27 02:39:09;;;;;;;6.68;4.97;;;;;;;16.62;74.05;99756.34;5114400;27;20031;-72
2021/05/27 02:41:35;;;;;;;9.13;5.22;;;;;;;16.63;73.50;99754.50;5113491;28;20208;-72
2021/05/27 02:44:00;;;;;;;7.72;4.85;;;;;;;16.81;73.32;99765.53;5113614;27;20023;-72
2021/05/27 02:46:26;;;;;;;9.25;4.70;;;;;;;16.99;71.94;99763.09;5119829;27;20028;-72
2021/05/27 02:48:52;;;;;;;9.60;4.57;;;;;;;17.01;72.24;99762.91;5120260;28;20007;-72
2021/05/27 02:51:18;;;;;;;7.30;4.63;;;;;;;17.09;71.84;99755.50;5115313;27;20027;-72
2021/05/27 02:53:43;;;;;;;6.15;4.18;;;;;;;17.28;71.45;99758.41;5114715;27;20030;-72
2021/05/27 02:56:09;;;;;;;10.30;4.63;;;;;;;17.52;70.40;99760.47;5114550;27;20038;-72
2021/05/27 02:58:34;;;;;;;5.40;3.80;;;;;;;17.47;69.81;99744.19;5114305;27;20109;-72
2021/05/27 03:01:00;;;;;;;4.60;4.03;;;;;;;17.69;69.53;99755.56;5096782;28;20071;-72
2021/05/27 03:03:25;;;;;;;8.15;4.68;;;;;;;17.87;68.79;99758.44;5113380;28;20039;-72
2021/05/27 03:05:51;;;;;;;6.18;4.30;;;;;;;18.00;67.93;99755.72;5114984;28;20036;-72
2021/05/27 03:08:17;;;;;;;8.40;5.45;;;;;;;17.94;67.55;99753.88;5098183;27;20020;-72
2021/05/27 03:10:43;;;;;;;8.23;5.38;;;;;;;17.64;68.80;99756.13;5115553;28;20044;-72
2021/05/27 03:13:09;;;;;;;6.22;4.70;;;;;;;17.44;69.41;99755.31;5095761;28;20161;-71
2021/05/27 03:15:37;;;;;;;9.57;5.40;;;;;;;17.30;70.29;99753.66;5114220;28;20043;-72
2021/05/27 03:18:07;;;;;;;6.32;5.05;;;;;;;17.28;70.89;99763.75;5112606;28;20031;-72
2021/05/27 03:20:34;;;;;;;6.32;5.22;;;;;;;17.36;70.47;99753.66;5112934;28;20140;-72
2021/05/27 03:23:00;;;;;;;7.07;5.60;;;;;;;17.43;70.56;99753.66;5115164;28;20055;-72
2021/05/27 03:25:25;;;;;;;5.75;4.72;;;;;;;17.52;70.20;99745.22;5114885;28;20027;-72
2021/05/27 03:27:51;;;;;;;9.68;5.40;;;;;;;17.63;69.83;99753.66;5114097;28;20044;-71
2021/05/27 03:30:17;;;;;;;7.53;5.43;;;;;;;17.70;69.32;99747.31;5111402;28;21057;-71
2021/05/27 03:32:44;;;;;;;7.68;5.50;;;;;;;17.56;69.92;99750.97;5114489;28;20258;-72
2021/05/27 03:35:11;;;;;;;6.78;5.57;;;;;;;17.53;70.61;99746.88;5116131;28;20194;-72
2021/05/27 03:37:37;;;;;;;7.05;5.40;;;;;;;17.62;70.73;99750.16;5112561;28;20333;-72
2021/05/27 03:40:14;;;;;;;8.23;5.72;;;;;;;17.84;70.13;99754.31;5097931;28;20030;-72
2021/05/27 03:42:44;;;;;;;9.63;6.10;;;;;;;17.88;70.28;99745.84;5113788;28;20031;-72
2021/05/27 03:45:15;;;;;;;16.90;5.85;;;;;;;18.06;69.68;99751.38;5111658;28;20064;-72
2021/05/27 03:47:41;;;;;;;8.23;6.03;;;;;;;18.16;69.30;99744.53;5114421;28;20253;-71
2021/05/27 03:50:09;;;;;;;7.57;5.68;;;;;;;17.91;70.55;99748.94;5117721;28;20276;-71
2021/05/27 03:52:38;;;;;;;9.40;6.50;;;;;;;17.60;71.92;99736.16;5119389;28;20104;-71
2021/05/27 03:55:08;;;;;;;11.82;6.82;;;;;;;17.35;73.28;99735.97;5115290;27;20059;-72
2021/05/27 03:57:34;;;;;;;12.05;6.72;;;;;;;17.43;73.55;99746.47;5119317;27;20300;-71
2021/05/27 04:02:48;;;;;;;9.00;6.38;;;;;;;17.52;73.15;99761.28;5120127;27;20108;-72
2021/05/27 04:07:59;;;;;;;;;;;;;;;18.01;71.59;99754.69;5120562;28;20337;-72
2021/05/27 04:10:25;;;;;;;10.05;6.35;;;;;;;17.96;71.73;99746.44;5104867;28;20237;-72
2021/05/27 04:12:51;;;;;;;7.75;6.38;;;;;;;17.97;71.58;99749.94;5118450;27;20040;-72
2021/05/27 04:15:37;;;;;;;9.95;6.60;;;;;;;18.00;71.95;99750.34;5116789;27;20042;-72
2021/05/27 04:18:12;;;;;;;11.65;6.70;;;;;;;18.17;71.23;99748.03;5116091;27;20225;-72
2021/05/27 04:20:54;;;;;;;11.55;6.45;;;;;;;18.21;71.37;99751.13;5097501;28;20036;-72
2021/05/27 04:23:36;;;;;;;7.43;6.53;;;;;;;18.44;70.04;99764.84;5117976;27;20332;-72
2021/05/27 04:26:09;;;;;;;8.07;5.95;;;;;;;18.65;69.53;99761.06;5118157;27;20030;-71
2021/05/27 04:28:37;;;;;;;11.40;6.30;;;;;;;18.91;68.17;99758.28;5115702;27;20035;-71
2021/05/27 04:31:14;;;;;;;7.32;4.95;;;;;;;19.17;67.19;99762.66;5116349;27;20034;-72
2021/05/27 04:33:40;;;;;;;11.43;6.13;;;;;;;18.53;66.55;99648.28;5118251;27;20245;-72
2021/05/27 04:36:16;;;;;;;8.70;5.63;;;;;;;19.40;66.23;99764.75;5117501;27;20100;-72
2021/05/27 04:38:42;;;;;;;5.65;5.10;;;;;;;19.35;65.94;99753.84;5115761;28;20027;-72
2021/05/27 04:41:08;;;;;;;7.35;5.30;;;;;;;19.48;66.19;99761.78;5118662;27;20044;-72
2021/05/27 04:43:35;;;;;;;7.38;5.22;;;;;;;19.28;66.48;99761.94;5115440;27;20035;-72
2021/05/27 04:46:01;;;;;;;7.80;4.95;;;;;;;19.34;66.27;99765.63;5114706;28;20128;-72
2021/05/27 04:48:26;;;;;;;10.88;5.47;;;;;;;18.95;67.91;99772.91;5118243;27;20080;-72
2021/05/27 04:50:53;;;;;;;7.45;5.03;;;;;;;19.33;66.75;99767.47;5117243;27;20106;-72
2021/05/27 04:53:19;;;;;;;8.05;5.57;;;;;;;19.29;67.57;99768.13;5118028;27;20035;-72
2021/05/27 04:55:46;;;;;;;8.77;5.35;;;;;;;19.14;67.36;99771.13;5099587;27;20031;-71
2021/05/27 04:58:11;;;;;;;9.27;5.65;;;;;;;19.17;67.62;99772.56;5115980;27;20092;-72
2021/05/27 05:00:37;;;;;;;15.10;5.30;;;;;;;19.39;67.50;99769.28;5101676;27;20023;-72
2021/05/27 05:03:03;;;;;;;8.63;5.22;;;;;;;19.37;67.03;99770.56;5124490;27;20030;-72
2021/05/27 05:05:29;;;;;;;6.32;5.03;;;;;;;19.34;67.13;99779.88;5123605;27;20031;-72
2021/05/27 05:07:56;;;;;;;10.55;5.10;;;;;;;19.34;67.43;99768.31;5122138;28;20031;-72
2021/05/27 05:10:23;;;;;;;7.57;4.93;;;;;;;19.37;67.35;99776.75;5105555;28;20314;-72
2021/05/27 05:12:50;;;;;;;9.50;4.88;;;;;;;19.38;67.21;99780.25;5116212;27;20099;-72
2021/05/27 05:15:25;;;;;;;7.38;4.68;;;;;;;19.38;67.94;99781.06;5096707;28;20035;-72
2021/05/27 05:18:00;;;;;;;8.70;4.93;;;;;;;18.82;69.40;99786.41;5115877;27;20036;-72
2021/05/27 05:20:28;;;;;;;8.50;5.05;;;;;;;19.20;68.76;99780.19;5115647;27;20399;-72
2021/05/27 05:22:55;;;;;;;7.03;4.53;;;;;;;19.54;66.90;99785.13;5113295;28;20452;-72
2021/05/27 05:25:21;;;;;;;8.27;4.97;;;;;;;19.64;67.24;99792.69;5116595;27;20065;-72
2021/05/27 05:27:47;;;;;;;5.25;4.40;;;;;;;19.74;66.90;99788.44;5115197;27;20067;-72
2021/05/27 05:30:14;;;;;;;6.72;5.22;;;;;;;19.75;66.61;99789.28;5132275;27;20032;-72
2021/05/27 05:32:40;;;;;;;10.20;5.97;;;;;;;19.56;66.20;99780.34;5111785;28;20202;-72
2021/05/27 05:35:08;;;;;;;8.73;4.43;;;;;;;19.91;65.92;99783.38;5116232;27;20034;-72
2021/05/27 05:37:33;;;;;;;8.15;4.32;;;;;;;19.85;65.86;99791.50;5114591;28;20045;-72
2021/05/27 05:39:59;;;;;;;6.32;4.43;;;;;;;19.76;66.32;99790.91;5116550;27;20270;-72
2021/05/27 05:42:24;;;;;;;5.28;4.25;;;;;;;20.02;66.27;99789.88;5117393;27;20270;-72
2021/05/27 05:44:50;;;;;;;8.88;5.13;;;;;;;20.07;65.34;99777.41;5116477;27;20040;-72
2021/05/27 05:47:15;;;;;;;5.90;4.60;;;;;;;19.92;65.96;99786.88;5114783;27;20076;-72
2021/05/27 05:49:41;;;;;;;6.70;4.25;;;;;;;19.96;66.19;99790.75;5114938;28;20069;-72
2021/05/27 05:52:06;;;;;;;5.22;4.40;;;;;;;20.06;65.18;99796.44;5113918;28;20028;-72
2021/05/27 05:54:32;;;;;;;8.70;4.78;;;;;;;19.94;65.70;99792.84;5116280;27;20057;-72
2021/05/27 05:56:57;;;;;;;9.63;5.70;;;;;;;20.32;65.34;99798.03;5111150;28;20063;-72
2021/05/27 05:59:23;;;;;;;5.88;5.07;;;;;;;20.50;64.25;99802.63;5115963;27;20015;-73
2021/05/27 06:01:51;;;;;;;9.75;6.70;;;;;;;20.94;63.17;99796.06;5115143;27;20039;-72
2021/05/27 06:04:17;;;;;;;9.60;5.72;;;;;;;21.41;61.82;99799.75;5116967;27;20027;-72
2021/05/27 06:06:43;;;;;;;7.03;4.80;;;;;;;21.88;58.47;99797.13;5113330;27;20244;-73
2021/05/27 06:09:08;;;;;;;5.95;4.55;;;;;;;22.36;57.12;99791.50;5112569;27;20247;-73
2021/05/27 06:11:34;;;;;;;5.93;3.88;;;;;;;22.25;56.58;99801.25;5112724;27;20047;-73
2021/05/27 06:13:59;;;;;;;6.68;4.53;;;;;;;21.59;59.21;99805.06;5117277;27;20035;-73
2021/05/27 06:16:25;;;;;;;6.40;4.70;;;;;;;22.28;57.29;99802.66;5113747;28;20036;-72
2021/05/27 06:18:50;;;;;;;9.90;4.25;;;;;;;23.08;54.21;99791.91;5111896;28;21082;-73
2021/05/27 06:21:16;;;;;;;7.55;4.65;;;;;;;23.08;54.01;99791.91;5113648;27;20038;-73
2021/05/27 06:23:41;;;;;;;6.03;4.60;;;;;;;22.93;54.44;99797.00;5116276;27;20344;-73
2021/05/27 06:26:06;;;;;;;6.80;3.97;;;;;;;22.55;54.97;99798.38;5113385;27;20024;-73
2021/05/27 06:28:32;;;;;;;6.97;4.50;;;;;;;22.92;55.02;99793.50;5114121;27;20019;-73
2021/05/27 06:30:57;;;;;;;4.88;4.00;;;;;;;22.52;55.86;99793.44;5113211;27;20032;-73
2021/05/27 06:33:24;;;;;;;5.55;4.57;;;;;;;21.97;57.44;99795.72;5098187;28;20030;-72
2021/05/27 06:35:49;;;;;;;5.93;4.63;;;;;;;21.68;58.26;99782.09;5113524;28;20597;-73
2021/05/27 06:38:16;;;;;;;6.93;4.93;;;;;;;21.96;57.72;99791.41;5112700;27;20027;-73
2021/05/27 06:40:42;;;;;;;8.70;4.57;;;;;;;21.89;56.53;99796.09;5114483;27;20068;-73
2021/05/27 06:43:07;;;;;;;6.13;4.47;;;;;;;21.64;57.79;99780.94;5132640;27;20027;-73
2021/05/27 06:45:33;;;;;;;5.70;4.30;;;;;;;22.30;55.31;99798.66;5114565;27;20102;-73
2021/05/27 06:47:59;;;;;;;7.43;4.32;;;;;;;22.11;55.99;99799.03;5113539;27;20069;-72
2021/05/27 06:50:32;;;;;;;5.35;3.88;;;;;;;22.22;56.84;99799.03;5114859;27;20051;-72
2021/05/27 06:53:18;;;;;;;5.60;4.30;;;;;;;22.28;56.21;99799.97;5096452;28;20028;-72
2021/05/27 06:55:45;;;;;;;8.98;4.13;;;;;;;21.92;58.45;99799.13;5117618;28;20152;-73
2021/05/27 06:58:11;;;;;;;6.90;4.90;;;;;;;21.60;59.84;99797.78;5120229;27;20027;-73
2021/05/27 07:00:37;;;;;;;8.25;4.88;;;;;;;21.46;59.10;99788.28;5116802;27;20066;-73
2021/05/27 07:03:04;;;;;;;7.25;5.18;;;;;;;21.57;59.33;99792.88;5111758;27;20054;-73
2021/05/27 07:05:29;;;;;;;6.63;4.22;;;;;;;22.43;57.03;99807.56;5117406;28;20087;-73
2021/05/27 07:07:56;;;;;;;6.35;3.97;;;;;;;23.44;53.07;99796.03;5119739;28;20035;-73
2021/05/27 07:10:21;;;;;;;7.30;4.10;;;;;;;24.22;51.13;99807.00;5117419;28;20024;-73
2021/05/27 07:12:49;;;;;;;7.00;4.40;;;;;;;24.36;50.76;99805.59;5115141;28;20423;-73
2021/05/27 07:15:15;;;;;;;7.20;4.43;;;;;;;23.87;52.10;99808.09;5100755;28;20026;-73
2021/05/27 07:17:40;;;;;;;9.18;5.00;;;;;;;22.93;56.21;99805.13;5118343;28;20028;-73
2021/05/27 07:20:07;;;;;;;7.38;5.35;;;;;;;22.12;57.47;99797.97;5112607;28;20026;-72
2021/05/27 07:22:32;;;;;;;8.65;5.75;;;;;;;21.62;60.05;99782.22;5113725;28;20030;-73
2021/05/27 07:24:58;;;;;;;10.07;6.32;;;;;;;21.24;61.95;99790.69;5111993;28;20032;-72
2021/05/27 07:27:23;;;;;;;9.38;6.72;;;;;;;21.00;63.81;99793.28;5119907;28;20031;-72
2021/05/27 07:29:49;;;;;;;7.82;5.65;;;;;;;21.13;62.28;99794.16;5121158;28;20023;-72
2021/05/27 07:32:15;;;;;;;7.70;5.57;;;;;;;20.92;62.93;99793.63;5124613;28;20469;-71
2021/05/27 07:34:43;;;;;;;6.88;5.30;;;;;;;20.93;63.95;99780.97;5125135;28;20084;-72
2021/05/27 07:37:09;;;;;;;11.25;6.20;;;;;;;20.95;64.69;99790.47;5124893;28;20321;-72
2021/05/27 07:39:34;;;;;;;9.07;6.45;;;;;;;21.15;66.92;99790.19;5123405;28;20056;-76
2021/05/27 07:42:01;;;;;;;9.68;5.78;;;;;;;21.02;65.02;99784.97;5138619;27;20060;-76
2021/05/27 07:44:26;;;;;;;9.30;6.70;;;;;;;20.60;66.80;99784.91;5124237;28;20024;-69
2021/05/27 07:46:52;;;;;;;8.30;6.05;;;;;;;20.40;67.06;99771.69;5125811;27;20040;-74
2021/05/27 07:49:17;;;;;;;7.00;5.25;;;;;;;20.39;65.88;99763.84;5107308;27;20345;-71
2021/05/27 07:51:44;;;;;;;10.27;6.15;;;;;;;20.54;67.59;99769.66;5124758;27;20310;-79
2021/05/27 07:54:09;;;;;;;8.75;5.75;;;;;;;20.17;66.96;99760.75;5124789;27;20301;-81
2021/05/27 07:56:34;;;;;;;9.63;6.20;;;;;;;20.25;69.78;99768.53;5124175;27;20141;-78
2021/05/27 07:59:00;;;;;;;10.85;6.88;;;;;;;20.01;69.53;99769.41;5122019;27;20119;-75
2021/05/27 08:01:25;;;;;;;7.90;6.50;;;;;;;19.87;70.22;99775.97;5106241;28;20030;-76
2021/05/27 08:03:51;;;;;;;10.52;6.70;;;;;;;19.93;70.95;99783.13;5124532;27;20054;-73
2021/05/27 08:06:17;;;;;;;8.52;6.47;;;;;;;20.35;70.91;99795.72;5124317;27;20031;-72
2021/05/27 08:08:43;;;;;;;7.03;6.32;;;;;;;20.75;68.51;99764.84;5122730;27;20026;-80
2021/05/27 08:27:57;;;;;;;10.52;6.22;;;;;;;22.96;58.90;99787.59;5262915;22;20117;-75
2021/05/27 08:30:23;;;;;;;6.63;4.80;;;;;;;22.40;57.02;99781.88;5089751;28;20036;-75
2021/05/27 08:32:49;;;;;;;8.90;4.88;;;;;;;22.70;59.33;99776.25;5090945;28;20044;-77
2021/05/27 08:35:15;;;;;;;8.25;4.85;;;;;;;22.85;55.17;99760.38;5084234;28;20387;-77
2021/05/27 08:37:40;;;;;;;7.85;4.65;;;;;;;22.38;57.17;99775.91;5075466;28;20025;-77
2021/05/27 08:40:06;;;;;;;12.18;5.43;;;;;;;22.38;58.33;99773.19;5087986;28;20025;-77
2021/05/27 08:42:33;;;;;;;12.57;6.13;;;;;;;22.29;59.91;99786.22;5088767;28;20282;-77
2021/05/27 08:44:59;;;;;;;9.73;5.30;;;;;;;22.91;58.44;99747.84;5384080;22;20348;-70
2021/05/27 08:47:24;;;;;;;7.65;4.90;;;;;;;23.30;55.44;99762.28;5097600;28;20036;-74
2021/05/27 08:49:51;;;;;;;8.13;4.90;;;;;;;23.53;56.57;99774.81;5096843;28;20024;-71
2021/05/27 08:52:17;;;;;;;6.32;5.43;;;;;;;23.03;57.20;99766.69;5096827;28;20055;-71
2021/05/27 08:54:43;;;;;;;8.15;5.82;;;;;;;22.86;57.83;99772.81;5084102;28;20105;-71
2021/05/27 08:57:08;;;;;;;11.70;6.10;;;;;;;22.26;59.47;99773.22;5104895;28;20380;-71
2021/05/27 08:59:34;;;;;;;8.98;4.50;;;;;;;22.70;57.35;99768.16;5104783;28;20035;-72
2021/05/27 09:02:07;;;;;;;8.02;5.55;;;;;;;23.18;57.67;99761.53;5104477;28;20028;-72
2021/05/27 09:04:34;;;;;;;6.63;5.10;;;;;;;23.32;55.28;99775.56;5086477;28;20340;-72
2021/05/27 09:07:00;;;;;;;9.52;5.28;;;;;;;23.28;54.10;99767.13;5086833;28;20031;-72
2021/05/27 09:09:49;;;;;;;12.07;6.47;;;;;;;23.50;55.28;99770.72;5104516;28;20036;-71
2021/05/27 09:12:33;;;;;;;9.23;4.07;;;;;;;24.00;52.78;99777.22;5104769;28;20032;-71
2021/05/27 09:15:01;;;;;;;6.60;3.83;;;;;;;23.81;53.09;99769.34;5104820;28;20111;-72
2021/05/27 09:17:42;;;;;;;16.17;4.43;;;;;;;23.59;53.95;99765.75;5104435;28;20052;-71
2021/05/27 09:20:17;;;;;;;13.40;5.35;;;;;;;23.18;55.67;99750.75;5104754;28;20044;-71
2021/05/27 09:22:44;;;;;;;10.60;4.50;;;;;;;23.20;55.63;99754.84;5104240;28;20056;-72
2021/05/27 09:25:31;;;;;;;6.82;4.25;;;;;;;23.50;54.51;99749.09;5104204;28;20044;-73
2021/05/27 09:27:56;;;;;;;6.40;4.43;;;;;;;23.26;55.44;99758.44;5086292;28;20020;-79
2021/05/27 09:30:23;;;;;;;7.95;4.80;;;;;;;22.93;56.88;99751.94;5104212;28;20038;-74
2021/05/27 09:32:51;;;;;;;8.38;5.18;;;;;;;22.67;58.06;99757.03;5104372;28;20060;-78
2021/05/27 09:35:18;;;;;;;5.45;4.35;;;;;;;22.51;59.53;99745.13;5086058;28;20078;-78
2021/05/27 09:37:51;;;;;;;7.88;4.93;;;;;;;22.35;59.62;99721.59;5085905;28;20028;-74
2021/05/27 09:40:39;;;;;;;5.68;4.85;;;;;;;22.52;61.67;99738.66;5103714;28;20051;-78
2021/05/27 09:43:06;;;;;;;9.90;5.53;;;;;;;22.41;62.07;99740.34;5101479;28;20306;-78
2021/05/27 09:45:34;;;;;;;8.90;5.10;;;;;;;22.61;60.14;99732.66;5102448;28;20070;-78
2021/05/27 09:48:17;;;;;;;9.35;5.90;;;;;;;22.47;60.67;99734.00;5103136;28;20067;-74
2021/05/27 09:50:42;;;;;;;9.63;5.95;;;;;;;22.59;59.35;99736.66;5103277;28;20336;-77
2021/05/27 09:53:35;;;;;;;6.35;5.15;;;;;;;22.60;60.17;99732.88;5102647;28;20039;-74
2021/05/27 09:56:03;;;;;;;11.65;5.78;;;;;;;22.56;61.65;99729.03;5094420;28;20071;-77
2021/05/27 09:58:28;;;;;;;11.65;5.82;;;;;;;22.38;61.47;99729.22;5102754;28;20085;-74
2021/05/27 10:00:55;;;;;;;6.47;4.97;;;;;;;22.51;60.35;99723.53;5102795;28;20028;-78
2021/05/27 10:03:36;;;;;;;5.90;4.80;;;;;;;22.55;59.65;99722.00;5102925;28;20028;-78
2021/05/27 10:06:05;;;;;;;10.23;5.60;;;;;;;22.91;59.54;99721.66;5102363;28;20046;-78
2021/05/27 10:08:47;;;;;;;8.27;4.80;;;;;;;22.99;59.26;99723.13;5102703;28;20648;-74
2021/05/27 10:11:13;;;;;;;11.80;4.57;;;;;;;23.07;58.39;99728.13;5102319;28;20032;-78
2021/05/27 10:13:41;;;;;;;7.57;4.15;;;;;;;23.09;57.23;99738.69;5102256;28;20055;-74
2021/05/27 10:16:09;;;;;;;6.50;3.88;;;;;;;22.83;54.40;99718.50;5115763;28;20020;-78
2021/05/27 10:18:35;;;;;;;5.35;2.63;;;;;;;22.84;47.97;99741.72;5102387;28;20218;-74
2021/05/27 10:21:03;;;;;;;6.97;2.88;;;;;;;22.82;52.27;99727.66;5084095;28;20308;-78
2021/05/27 10:23:29;;;;;;;7.82;3.33;;;;;;;22.78;53.35;99724.59;5102197;28;20048;-74
2021/05/27 10:25:56;;;;;;;6.07;3.13;;;;;;;22.70;53.30;99737.66;5084086;28;20058;-78
2021/05/27 10:28:24;;;;;;;7.30;3.13;;;;;;;22.83;54.17;99727.41;5102029;28;20373;-75
2021/05/27 10:30:51;;;;;;;6.03;3.22;;;;;;;23.04;51.56;99723.22;5101559;28;20443;-74
2021/05/27 10:33:20;;;;;;;3.92;2.60;;;;;;;23.15;52.98;99716.13;5100779;28;20028;-77
2021/05/27 10:35:57;;;;;;;6.18;3.00;;;;;;;23.34;50.98;99717.50;5102475;28;20047;-74
2021/05/27 10:38:44;;;;;;;6.75;3.47;;;;;;;23.36;50.55;99719.97;5084946;28;20096;-74
2021/05/27 10:41:13;;;;;;;4.50;3.35;;;;;;;23.14;52.43;99715.28;5102814;28;20313;-74
2021/05/27 10:44:01;;;;;;;10.20;4.05;;;;;;;23.03;55.81;99724.28;5102880;28;20061;-74
2021/05/27 10:46:55;;;;;;;6.97;4.50;;;;;;;22.57;56.81;99731.50;5102725;28;20024;-74
2021/05/27 10:49:39;;;;;;;9.10;4.10;;;;;;;22.86;58.03;99715.31;5103039;28;20309;-74
2021/05/27 10:52:23;;;;;;;;;;;;;;;22.90;57.16;99713.78;5091640;28;20047;-78
2021/05/27 10:54:48;;;;;;;5.57;3.65;;;;;;;23.02;53.69;99717.25;5102631;28;19920;-74
2021/05/27 10:57:38;;;;;;;6.53;3.53;;;;;;;22.90;55.16;99701.13;5102794;28;20321;-74
2021/05/27 11:00:25;;;;;;;7.45;3.65;;;;;;;23.20;54.07;99702.69;5102978;28;20085;-77
2021/05/27 11:02:50;;;;;;;8.48;3.88;;;;;;;22.87;55.58;99698.88;5102558;28;20039;-74
2021/05/27 11:05:17;;;;;;;4.45;3.60;;;;;;;23.00;54.46;99702.34;5102549;28;20039;-74
2021/05/27 11:08:18;;;;;;;5.45;2.70;;;;;;;22.90;51.70;99695.72;5084453;28;20024;-74
2021/05/27 11:10:43;;;;;;;5.40;3.17;;;;;;;23.07;53.76;99700.31;5084764;28;20024;-74
2021/05/27 11:13:09;;;;;;;4.85;3.50;;;;;;;23.19;53.03;99699.16;5084520;28;20339;-73
2021/05/27 11:15:34;;;;;;;5.25;3.60;;;;;;;23.05;54.70;99692.44;5100658;28;20032;-74
2021/05/27 11:18:05;;;;;;;7.35;3.00;;;;;;;23.16;52.85;99691.56;5099236;28;20027;-78
2021/05/27 11:20:32;;;;;;;5.97;3.15;;;;;;;23.46;52.17;99685.81;5083434;28;20031;-78
2021/05/27 11:23:14;;;;;;;4.57;2.80;;;;;;;23.73;51.06;99685.13;5099793;28;20256;-77
2021/05/27 11:25:40;;;;;;;4.47;3.55;;;;;;;23.43;51.73;99678.19;5098559;28;20095;-74
2021/05/27 11:28:13;;;;;;;5.75;2.92;;;;;;;23.31;50.63;99682.06;5097782;28;20032;-73
2021/05/27 11:30:41;;;;;;;5.05;3.03;;;;;;;22.93;50.14;99678.22;5079829;28;20051;-73
2021/05/27 11:33:12;;;;;;;7.20;3.25;;;;;;;23.25;49.63;99663.06;5098729;28;20028;-74
2021/05/27 11:35:38;;;;;;;3.13;2.60;;;;;;;23.61;50.44;99671.72;5098824;28;20345;-73
2021/05/27 11:38:10;;;;;;;4.50;3.47;;;;;;;23.65;50.69;99663.94;5097801;28;20045;-74
2021/05/27 11:40:42;;;;;;;4.05;3.00;;;;;;;23.81;50.88;99663.06;5095340;28;20043;-77
2021/05/27 11:43:08;;;;;;;4.10;2.78;;;;;;;23.66;48.49;99671.81;5097751;28;20024;-74
2021/05/27 11:45:42;;;;;;;6.30;3.10;;;;;;;23.75;48.88;99645.16;5098100;28;20110;-76
2021/05/27 11:50:40;;;;;;;3.83;2.70;;;;;;;23.75;46.31;99647.84;5097648;28;19916;-74
2021/05/27 11:53:06;;;;;;;3.55;2.95;;;;;;;23.82;48.18;99635.78;5098770;28;20039;-73
2021/05/27 11:55:32;;;;;;;5.30;3.10;;;;;;;23.75;47.54;99645.16;5097485;28;20046;-73
2021/05/27 11:57:58;;;;;;;4.68;2.83;;;;;;;23.49;49.68;99643.97;5100885;28;20024;-73
2021/05/27 12:00:24;;;;;;;3.60;2.58;;;;;;;23.63;51.78;99639.88;5099827;28;20059;-74
2021/05/27 12:02:51;;;;;;;5.90;3.00;;;;;;;23.58;50.09;99641.69;5098504;28;20084;-74